Weather reports worldwide

Advertisment
Great Dun Fell, United Kingdom (3227): temperature & dewpoint: 11.12.2017 23:00:00 - 17.12.2017 23:00:00 (GMT)Great Dun Fell, United Kingdom (3227): wind speed & gusts: 11.12.2017 23:00:00 - 17.12.2017 23:00:00 (GMT)Great Dun Fell, United Kingdom (3227): wind direction: 11.12.2017 23:00:00 - 17.12.2017 23:00:00 (GMT)
Date & Time tt [°C] td [°C] ff [km/h] ff [kn] fx [km/h] fx [kn] dd
17.12.2017 23:00:00 0,0 0,0 41 22 54 29 NW
17.12.2017 22:00:00 -0,1 -0,1 42 23 50 27 NW
17.12.2017 21:00:00 0,2 0,1 41 22 54 29 NW
17.12.2017 20:00:00 0,2 -0,3 44 24 70 38 N
17.12.2017 19:00:00 -0,3 -0,7 59 32 68 37 N
17.12.2017 18:00:00 0,2 0,2 48 26 67 36 NNW
17.12.2017 17:00:00 1,4 1,4 57 31 - - NW
17.12.2017 16:00:00 3,9 3,9 68 37 94 51 W
17.12.2017 15:00:00 4,2 4,2 76 41 91 49 W
17.12.2017 14:00:00 1,1 1,1 41 22 55 30 WSW
17.12.2017 13:00:00 0,0 0,0 46 25 63 34 SW
17.12.2017 12:00:00 0,0 0,0 50 27 68 37 SW
17.12.2017 11:00:00 -0,1 -0,1 61 33 87 47 SW
17.12.2017 10:00:00 -0,1 -0,1 65 35 81 44 SW
17.12.2017 09:00:00 -0,2 -0,2 65 35 80 43 SW
17.12.2017 08:00:00 -0,2 -0,2 59 32 70 38 SSW
17.12.2017 07:00:00 -0,6 -0,6 52 28 63 34 SW
17.12.2017 06:00:00 -1,3 -1,3 50 27 59 32 SW
17.12.2017 05:00:00 -1,7 -1,7 46 25 54 29 SW
17.12.2017 04:00:00 -1,7 -1,7 31 17 46 25 WSW
17.12.2017 03:00:00 -2,7 -2,7 37 20 - - W
17.12.2017 02:00:00 -3,0 -3,0 29 16 - - W
17.12.2017 01:00:00 -3,4 -3,4 28 15 - - W
17.12.2017 00:00:00 -4,0 -4,0 21 11 - - WSW
16.12.2017 23:00:00 -4,3 -4,8 13 7 - - W
16.12.2017 22:00:00 -4,2 -4,6 16 9 - - NW
16.12.2017 21:00:00 -4,1 -5,1 24 13 - - NNW
16.12.2017 20:00:00 -3,9 -4,3 22 12 - - NW
16.12.2017 19:00:00 -3,5 -3,9 31 17 - - NNW
16.12.2017 18:00:00 -3,2 -3,4 31 17 - - NNW
16.12.2017 17:00:00 -2,7 -2,7 39 21 - - NNW
16.12.2017 16:00:00 -2,7 -2,7 41 22 50 27 NNW
16.12.2017 15:00:00 -3,0 -3,0 34 18 46 25 NNW
16.12.2017 14:00:00 -2,8 -3,0 41 22 54 29 NNW
16.12.2017 13:00:00 -2,6 -2,6 39 21 52 28 NW
16.12.2017 12:00:00 -2,4 -2,4 29 16 - - NNW
16.12.2017 11:00:00 -2,6 -2,6 37 20 50 27 NW
16.12.2017 10:00:00 -3,2 -3,2 42 23 50 27 NW
16.12.2017 09:00:00 -3,5 -3,5 35 19 48 26 WNW
16.12.2017 08:00:00 -3,8 -3,8 44 24 52 28 NW
16.12.2017 07:00:00 -4,1 -4,1 50 27 55 30 NW
16.12.2017 06:00:00 -4,4 -4,5 48 26 54 29 NW
16.12.2017 05:00:00 -4,5 -4,7 37 20 54 29 NNW
16.12.2017 04:00:00 -4,6 -4,7 44 24 57 31 NNW
16.12.2017 03:00:00 -4,4 -4,6 34 18 48 26 NNW
16.12.2017 02:00:00 -4,1 -4,2 39 21 52 28 NNW
16.12.2017 01:00:00 -3,9 -4,0 42 23 61 33 NNW
16.12.2017 00:00:00 -3,7 -3,7 48 26 57 31 NNW
15.12.2017 23:00:00 -3,4 -3,4 41 22 54 29 NNW
15.12.2017 22:00:00 -3,4 -3,5 41 22 54 29 NNW
15.12.2017 21:00:00 -3,5 -3,5 41 22 48 26 NNW
15.12.2017 20:00:00 -3,4 -3,4 41 22 57 31 NNW
15.12.2017 19:00:00 -3,2 -3,2 50 27 63 34 NNW
15.12.2017 18:00:00 -3,1 -3,1 55 30 65 35 N
15.12.2017 17:00:00 -3,1 -3,1 55 30 65 35 N
15.12.2017 16:00:00 -2,5 -2,5 55 30 70 38 N
15.12.2017 15:00:00 -2,0 -2,0 41 22 57 31 N
15.12.2017 14:00:00 -1,8 -1,8 31 17 76 41 NNE
15.12.2017 13:00:00 -1,7 -1,7 46 25 72 39 NNE
15.12.2017 12:00:00 -1,4 -1,4 48 26 70 38 NNE
15.12.2017 11:00:00 -1,7 -1,7 44 24 68 37 NNE
15.12.2017 10:00:00 -2,0 -2,0 31 17 54 29 N
15.12.2017 09:00:00 -2,5 -2,5 28 15 50 27 NNE
15.12.2017 08:00:00 -2,7 -2,7 29 16 52 28 N
15.12.2017 07:00:00 -2,9 -2,9 42 23 54 29 N
15.12.2017 06:00:00 -3,0 -3,0 39 21 57 31 N
15.12.2017 05:00:00 -2,8 -2,8 31 17 61 33 N
15.12.2017 04:00:00 -2,7 -2,7 41 22 67 36 NNE
15.12.2017 03:00:00 -2,7 -2,7 44 24 70 38 NNE
15.12.2017 02:00:00 -2,8 -2,8 42 23 80 43 NNE
15.12.2017 01:00:00 -3,0 -3,0 50 27 72 39 NE
15.12.2017 00:00:00 -3,2 -3,2 34 18 - - NE
14.12.2017 23:00:00 -2,6 -2,6 24 13 - - NNE
14.12.2017 22:00:00 -2,4 -2,4 28 15 - - NW
14.12.2017 21:00:00 -2,9 -2,9 31 17 - - WNW
14.12.2017 20:00:00 -3,3 -3,3 31 17 48 26 NW
14.12.2017 19:00:00 -3,4 -3,4 42 23 61 33 NNW
14.12.2017 18:00:00 -2,7 -2,7 48 26 70 38 NW
14.12.2017 17:00:00 -2,4 -2,4 59 32 74 40 WNW
14.12.2017 16:00:00 -2,4 -2,4 48 26 59 32 WNW
14.12.2017 15:00:00 -2,4 -2,4 42 23 68 37 W
14.12.2017 14:00:00 -1,3 -1,3 52 28 70 38 WSW
14.12.2017 13:00:00 -1,4 -1,4 63 34 74 40 WSW
14.12.2017 12:00:00 -1,6 -1,6 61 33 72 39 WSW
14.12.2017 11:00:00 -1,8 -1,8 59 32 72 39 SW
14.12.2017 10:00:00 -2,0 -2,0 57 31 74 40 SW
14.12.2017 09:00:00 -2,1 -2,1 63 34 83 45 WSW
14.12.2017 08:00:00 -2,2 -2,2 59 32 72 39 WSW
14.12.2017 07:00:00 -2,7 -2,7 50 27 63 34 WSW
14.12.2017 06:00:00 -3,4 -3,4 52 28 61 33 WSW
14.12.2017 05:00:00 -3,1 -3,1 54 29 61 33 WSW
14.12.2017 04:00:00 -3,2 -3,2 42 23 65 35 WSW
14.12.2017 03:00:00 -3,1 -3,1 57 31 65 35 W
14.12.2017 02:00:00 -3,1 -3,1 52 28 72 39 W
14.12.2017 01:00:00 -3,1 -3,1 50 27 81 44 W
14.12.2017 00:00:00 -3,2 -3,2 52 28 67 36 W
13.12.2017 23:00:00 -3,3 -3,3 54 29 67 36 W
13.12.2017 22:00:00 -3,0 -3,0 55 30 78 42 W
13.12.2017 21:00:00 -3,0 -3,0 61 33 78 42 W
13.12.2017 20:00:00 -2,8 -2,8 41 22 55 30 W
13.12.2017 19:00:00 -2,8 -2,8 41 22 54 29 W
13.12.2017 18:00:00 -2,7 -2,7 46 25 54 29 W
13.12.2017 17:00:00 -2,8 -2,8 46 25 70 38 W
13.12.2017 16:00:00 -2,5 -2,5 54 29 74 40 W
13.12.2017 15:00:00 -2,1 -2,1 57 31 80 43 W
13.12.2017 14:00:00 -1,3 -1,3 57 31 85 46 W
13.12.2017 13:00:00 -1,8 -1,8 48 26 81 44 WSW
13.12.2017 12:00:00 -1,3 -1,3 63 34 87 47 W
13.12.2017 11:00:00 0,0 0,0 61 33 72 39 WSW
13.12.2017 10:00:00 -0,1 -0,1 59 32 70 38 WSW
13.12.2017 09:00:00 -0,1 -0,1 55 30 83 45 WSW
13.12.2017 08:00:00 -0,1 -0,1 61 33 67 36 SW
13.12.2017 07:00:00 -0,2 -0,2 55 30 72 39 WSW
13.12.2017 06:00:00 -0,2 -0,2 57 31 65 35 WSW
13.12.2017 05:00:00 -0,2 -0,2 42 23 59 32 WSW
13.12.2017 04:00:00 -0,1 -0,1 54 29 61 33 WSW
13.12.2017 03:00:00 -0,2 -0,2 52 28 59 32 WSW
13.12.2017 02:00:00 -0,1 -0,1 57 31 70 38 W
13.12.2017 01:00:00 -0,2 -0,2 48 26 61 33 W
13.12.2017 00:00:00 -0,5 -0,5 46 25 61 33 WSW
12.12.2017 23:00:00 -1,2 -1,2 57 31 74 40 WSW
12.12.2017 22:00:00 -1,9 -1,9 55 30 78 42 SW
12.12.2017 21:00:00 -2,2 -2,2 70 38 94 51 SW
12.12.2017 20:00:00 -1,8 -1,8 80 43 94 51 SW
12.12.2017 19:00:00 -2,0 -2,0 76 41 - - SW
12.12.2017 18:00:00 -1,9 -1,9 72 39 81 44 SW
12.12.2017 17:00:00 -1,9 -1,9 67 36 80 43 SW
12.12.2017 16:00:00 -2,3 -2,3 52 28 63 34 SW
12.12.2017 15:00:00 -2,2 -2,2 35 19 46 25 SW
12.12.2017 14:00:00 -2,4 -2,4 35 19 - - SW
12.12.2017 13:00:00 -2,9 -2,9 35 19 52 28 SW
12.12.2017 12:00:00 -2,8 -2,8 37 20 - - WSW
12.12.2017 11:00:00 -3,6 -3,6 37 20 - - WSW
12.12.2017 10:00:00 -3,6 -3,6 35 19 - - WSW
12.12.2017 09:00:00 -3,5 -3,5 28 15 - - WSW
12.12.2017 08:00:00 -3,4 -3,4 22 12 - - W
12.12.2017 07:00:00 -3,5 -3,5 22 12 - - W
12.12.2017 06:00:00 -3,3 -3,3 18 10 - - WNW
12.12.2017 05:00:00 -3,5 -3,5 13 7 - - N
12.12.2017 04:00:00 -3,6 -3,6 9 5 - - WNW
12.12.2017 03:00:00 -3,4 -3,4 18 10 - - WNW
12.12.2017 02:00:00 -3,3 -3,3 13 7 - - NW
12.12.2017 01:00:00 -3,3 -3,3 18 10 - - NE
12.12.2017 00:00:00 -3,2 -3,2 21 11 - - NNE
11.12.2017 23:00:00 -3,3 -3,3 22 12 - - NNE

tt = temperature
td = dewpoint
ff = wind speed
fx = gusts
dd = wind direction

Next stations